Kenel, South Dakota
Current Conditions -  °F | °C
As of 10:52 PM on Thursday 27 Nov 2014 (Local Time) from KMBG Reporting Station
Clear Clear  
Wind Chill: -1°   Ceiling: Unl
Heat Index: 13°   Visibility: 10mi
Dew Point:   Wind: 12mph
Humidity: 84%   Direction: 90°E
Pressure: 29.84"   Gusts: NA
Location:  45.6923°N, 100.994°W
Report Text: KMBG 280552Z AUTO 09010KT 10SM CLR M11/M13 A2984 RMK AO2 SLP138 T11061128 11067 21106 410671183 56021
Loading
Personal Weather Stations






























Interactive Weather Map New forecast layout! Learn more

10-Day Weather Forecast

Advertisements
Track Severe Weather on mobile